createdAt,value
2022-07-31T00:00:07.135Z,0
2022-07-31T00:03:07.477Z,0
2022-07-31T00:06:10.754Z,0
2022-07-31T00:09:07.104Z,0
2022-07-31T00:12:07.050Z,0
2022-07-31T00:15:07.842Z,0
2022-07-31T00:18:07.028Z,0
2022-07-31T00:21:07.083Z,0
2022-07-31T00:24:07.072Z,0
2022-07-31T00:27:09.474Z,0
2022-07-31T00:30:07.105Z,0
2022-07-31T00:33:07.245Z,0
2022-07-31T00:36:07.057Z,0
2022-07-31T00:39:07.206Z,0
2022-07-31T00:42:07.062Z,0
2022-07-31T00:45:07.896Z,0
2022-07-31T00:48:08.998Z,0
2022-07-31T00:51:07.311Z,0
2022-07-31T00:54:07.129Z,0
2022-07-31T00:57:09.022Z,0
2022-07-31T01:00:07.127Z,0
2022-07-31T01:03:07.118Z,0
2022-07-31T01:06:07.269Z,0
2022-07-31T01:09:07.219Z,0
2022-07-31T01:12:08.022Z,0
2022-07-31T01:15:07.019Z,0
2022-07-31T01:18:07.044Z,0
2022-07-31T01:21:07.030Z,0
2022-07-31T01:24:07.185Z,0
2022-07-31T01:27:08.830Z,0
2022-07-31T01:30:07.416Z,0
2022-07-31T01:33:07.124Z,0
2022-07-31T01:36:07.069Z,0
2022-07-31T01:39:07.103Z,0
2022-07-31T01:42:08.735Z,0
2022-07-31T01:45:07.652Z,0
2022-07-31T01:48:07.088Z,0
2022-07-31T01:51:07.017Z,0
2022-07-31T01:54:07.090Z,0
2022-07-31T01:57:07.088Z,0
2022-07-31T02:00:35.396Z,0
2022-07-31T02:03:19.346Z,0
2022-07-31T02:06:09.788Z,0
2022-07-31T02:09:07.197Z,0
2022-07-31T02:12:12.956Z,0
2022-07-31T02:15:07.132Z,0
2022-07-31T02:18:07.182Z,0
2022-07-31T02:21:07.036Z,0
2022-07-31T02:24:07.062Z,0
2022-07-31T02:27:58.399Z,0
2022-07-31T02:30:07.066Z,0
2022-07-31T02:33:07.135Z,0
2022-07-31T02:36:07.092Z,0
2022-07-31T02:39:07.134Z,0
2022-07-31T02:42:08.769Z,0
2022-07-31T02:45:07.059Z,0
2022-07-31T02:48:07.014Z,0
2022-07-31T02:51:07.104Z,0
2022-07-31T02:54:07.023Z,0
2022-07-31T02:57:07.055Z,3
2022-07-31T03:00:09.387Z,3
2022-07-31T03:03:07.035Z,3
2022-07-31T03:06:07.055Z,7
2022-07-31T03:09:07.027Z,10
2022-07-31T03:12:11.568Z,13
2022-07-31T03:15:07.118Z,20
2022-07-31T03:18:15.680Z,33
2022-07-31T03:21:07.020Z,50
2022-07-31T03:24:09.514Z,73
2022-07-31T03:27:07.010Z,103
2022-07-31T03:30:07.278Z,143
2022-07-31T03:33:07.039Z,197
2022-07-31T03:36:07.083Z,253
2022-07-31T03:39:07.174Z,323
2022-07-31T03:42:19.088Z,393
2022-07-31T03:45:07.145Z,467
2022-07-31T03:48:07.086Z,553
2022-07-31T03:51:07.178Z,650
2022-07-31T03:54:07.152Z,757
2022-07-31T03:57:07.092Z,867
2022-07-31T04:00:18.762Z,983
2022-07-31T04:03:08.299Z,1113
2022-07-31T04:06:07.118Z,1240
2022-07-31T04:09:23.454Z,1333
2022-07-31T04:12:08.622Z,1493
2022-07-31T04:15:07.132Z,1647
2022-07-31T04:18:07.103Z,1977
2022-07-31T04:21:07.105Z,2167
2022-07-31T04:24:07.120Z,2297
2022-07-31T04:27:13.096Z,2523
2022-07-31T04:30:09.391Z,2943
2022-07-31T04:33:07.062Z,3310
2022-07-31T04:36:07.179Z,3800
2022-07-31T04:39:07.131Z,4223
2022-07-31T04:42:13.188Z,4567
2022-07-31T04:45:07.103Z,4707
2022-07-31T04:48:07.038Z,5113
2022-07-31T04:51:07.045Z,5783
2022-07-31T04:54:07.106Z,6977
2022-07-31T04:57:07.088Z,7750
2022-07-31T05:00:08.120Z,8253
2022-07-31T05:03:07.050Z,8303
2022-07-31T05:06:12.313Z,7887
2022-07-31T05:09:23.553Z,6910
2022-07-31T05:12:09.021Z,7893
2022-07-31T05:15:07.174Z,8750
2022-07-31T05:18:07.090Z,9433
2022-07-31T05:21:07.106Z,8540
2022-07-31T05:24:07.727Z,8430
2022-07-31T05:27:07.230Z,8907
2022-07-31T05:30:07.297Z,10293
2022-07-31T05:33:07.094Z,11063
2022-07-31T05:36:07.119Z,12377
2022-07-31T05:39:07.246Z,16140
2022-07-31T05:42:08.060Z,15170
2022-07-31T05:45:07.074Z,13850
2022-07-31T05:48:07.136Z,16590
2022-07-31T05:51:12.232Z,14790
2022-07-31T05:54:07.128Z,11223
2022-07-31T05:57:07.036Z,10643
2022-07-31T06:00:11.595Z,10457
2022-07-31T06:03:07.145Z,10040
2022-07-31T06:06:07.095Z,9670
2022-07-31T06:09:11.499Z,9463
2022-07-31T06:12:08.465Z,9347
2022-07-31T06:15:07.168Z,9673
2022-07-31T06:18:07.091Z,9877
2022-07-31T06:21:07.083Z,9720
2022-07-31T06:24:11.144Z,9667
2022-07-31T06:27:16.258Z,9827
2022-07-31T06:30:07.138Z,10390
2022-07-31T06:33:39.894Z,10937
2022-07-31T06:36:07.064Z,12010
2022-07-31T06:39:07.077Z,14170
2022-07-31T06:42:08.767Z,14790
2022-07-31T06:45:07.178Z,14697
2022-07-31T06:48:07.082Z,14193
2022-07-31T06:51:38.554Z,14197
2022-07-31T06:54:07.115Z,16300
2022-07-31T06:57:07.025Z,17647
2022-07-31T07:00:27.291Z,19190
2022-07-31T07:03:07.058Z,19617
2022-07-31T07:06:07.128Z,20720
2022-07-31T07:09:07.100Z,21757
2022-07-31T07:12:07.693Z,25707
2022-07-31T07:15:07.073Z,27473
2022-07-31T07:18:07.104Z,20437
2022-07-31T07:21:09.215Z,20377
2022-07-31T07:24:07.083Z,21193
2022-07-31T07:27:07.035Z,20823
2022-07-31T07:30:07.113Z,19760
2022-07-31T07:33:07.087Z,20963
2022-07-31T07:36:07.069Z,23770
2022-07-31T07:39:07.050Z,23887
2022-07-31T07:42:08.380Z,23180
2022-07-31T07:45:12.439Z,23683
2022-07-31T07:48:14.017Z,24487
2022-07-31T07:51:07.079Z,25430
2022-07-31T07:54:07.095Z,23730
2022-07-31T07:57:07.094Z,24633
2022-07-31T08:00:07.166Z,26647
2022-07-31T08:03:58.504Z,27047
2022-07-31T08:06:07.079Z,28933
2022-07-31T08:09:07.064Z,28987
2022-07-31T08:12:08.201Z,27107
2022-07-31T08:15:07.103Z,26480
2022-07-31T08:18:07.272Z,28777
2022-07-31T08:21:07.047Z,30610
2022-07-31T08:24:07.101Z,31547
2022-07-31T08:27:17.623Z,32117
2022-07-31T08:30:07.139Z,32997
2022-07-31T08:33:07.654Z,31323
2022-07-31T08:36:07.134Z,31563
2022-07-31T08:39:07.106Z,35297
2022-07-31T08:42:08.181Z,35730
2022-07-31T08:45:07.029Z,38750
2022-07-31T08:48:07.093Z,40107
2022-07-31T08:51:07.071Z,39037
2022-07-31T08:54:07.090Z,59330
2022-07-31T08:57:15.121Z,45813
2022-07-31T09:00:07.121Z,66840
2022-07-31T09:03:08.525Z,62197
2022-07-31T09:06:07.088Z,44373
2022-07-31T09:09:07.055Z,78583
2022-07-31T09:12:07.054Z,75793
2022-07-31T09:15:07.250Z,80040
2022-07-31T09:18:07.104Z,83090
2022-07-31T09:21:08.725Z,87427
2022-07-31T09:24:07.145Z,86323
2022-07-31T09:27:12.227Z,75567
2022-07-31T09:30:07.076Z,88293
2022-07-31T09:33:07.104Z,56673
2022-07-31T09:36:07.094Z,52647
2022-07-31T09:39:28.916Z,80787
2022-07-31T09:42:27.159Z,63033
2022-07-31T09:45:07.056Z,60023
2022-07-31T09:48:08.517Z,62483
2022-07-31T09:51:07.087Z,48613
2022-07-31T09:54:07.086Z,53327
2022-07-31T09:57:08.038Z,59420
2022-07-31T10:00:07.140Z,57840
2022-07-31T10:03:07.053Z,59117
2022-07-31T10:06:07.077Z,66980
2022-07-31T10:09:07.069Z,48590
2022-07-31T10:12:07.096Z,49390
2022-07-31T10:15:07.048Z,46113
2022-07-31T10:18:07.068Z,47843
2022-07-31T10:21:08.164Z,50133
2022-07-31T10:24:07.062Z,51070
2022-07-31T10:27:17.070Z,49010
2022-07-31T10:30:07.156Z,51653
2022-07-31T10:33:43.365Z,48833
2022-07-31T10:36:07.052Z,56293
2022-07-31T10:39:07.049Z,77720
2022-07-31T10:42:07.059Z,91213
2022-07-31T10:45:07.072Z,64620
2022-07-31T10:48:07.060Z,56227
2022-07-31T10:51:07.050Z,53677
2022-07-31T10:54:08.797Z,54390
2022-07-31T10:57:08.450Z,43940
2022-07-31T11:00:07.138Z,37557
2022-07-31T11:03:16.124Z,35090
2022-07-31T11:06:09.738Z,34950
2022-07-31T11:09:07.064Z,37273
2022-07-31T11:12:07.162Z,43473
2022-07-31T11:15:07.065Z,54097
2022-07-31T11:18:38.486Z,65807
2022-07-31T11:21:42.948Z,93833
2022-07-31T11:24:15.938Z,83200
2022-07-31T11:27:07.940Z,58873
2022-07-31T11:30:18.038Z,43713
2022-07-31T11:33:07.082Z,39913
2022-07-31T11:36:07.079Z,37063
2022-07-31T11:39:11.431Z,32727
2022-07-31T11:42:09.634Z,28897
2022-07-31T11:45:16.894Z,24810
2022-07-31T11:48:26.645Z,23043
2022-07-31T11:51:07.025Z,25490
2022-07-31T11:54:07.083Z,31003
2022-07-31T11:57:07.949Z,36693
2022-07-31T12:00:32.474Z,43200
2022-07-31T12:03:07.674Z,62457
2022-07-31T12:06:07.105Z,59217
2022-07-31T12:09:07.115Z,53050
2022-07-31T12:12:07.086Z,69690
2022-07-31T12:15:07.202Z,78020
2022-07-31T12:18:07.111Z,96930
2022-07-31T12:21:07.108Z,87633
2022-07-31T12:24:07.043Z,85110
2022-07-31T12:27:08.084Z,82967
2022-07-31T12:30:07.188Z,83813
2022-07-31T12:33:07.066Z,81563
2022-07-31T12:36:06.995Z,81957
2022-07-31T12:39:07.092Z,81530
2022-07-31T12:42:07.035Z,80657
2022-07-31T12:45:24.009Z,80723
2022-07-31T12:48:07.017Z,81353
2022-07-31T12:51:07.089Z,82673
2022-07-31T12:54:08.673Z,85657
2022-07-31T12:57:08.045Z,61913
2022-07-31T13:00:07.304Z,44487
2022-07-31T13:03:07.107Z,43393
2022-07-31T13:06:09.104Z,35463
2022-07-31T13:09:07.067Z,33717
2022-07-31T13:12:07.056Z,42800
2022-07-31T13:15:07.079Z,46533
2022-07-31T13:18:07.093Z,56990
2022-07-31T13:21:07.062Z,72433
2022-07-31T13:24:07.066Z,56847
2022-07-31T13:27:08.088Z,74780
2022-07-31T13:30:10.001Z,55997
2022-07-31T13:33:07.110Z,40280
2022-07-31T13:36:07.063Z,67707
2022-07-31T13:39:07.085Z,66470
2022-07-31T13:42:07.113Z,36280
2022-07-31T13:45:14.569Z,33987
2022-07-31T13:48:15.043Z,33130
2022-07-31T13:51:07.143Z,34487
2022-07-31T13:54:07.101Z,30903
2022-07-31T13:57:07.087Z,29753
2022-07-31T14:00:07.118Z,29933
2022-07-31T14:03:07.085Z,42793
2022-07-31T14:06:10.175Z,51267
2022-07-31T14:09:07.052Z,40700
2022-07-31T14:12:14.120Z,38157
2022-07-31T14:15:07.088Z,31273
2022-07-31T14:18:14.483Z,27257
2022-07-31T14:21:07.105Z,25393
2022-07-31T14:24:07.129Z,23987
2022-07-31T14:27:07.033Z,24353
2022-07-31T14:30:07.151Z,22333
2022-07-31T14:33:07.065Z,20430
2022-07-31T14:36:07.054Z,21933
2022-07-31T14:39:07.068Z,26287
2022-07-31T14:42:08.000Z,29797
2022-07-31T14:45:07.495Z,35013
2022-07-31T14:48:07.091Z,34420
2022-07-31T14:51:07.043Z,29377
2022-07-31T14:54:07.110Z,25930
2022-07-31T14:57:08.468Z,25227
2022-07-31T15:00:10.565Z,26083
2022-07-31T15:03:07.086Z,24390
2022-07-31T15:09:07.080Z,17210
2022-07-31T15:12:08.644Z,14817
2022-07-31T15:15:07.093Z,15463
2022-07-31T15:18:07.166Z,16703
2022-07-31T15:21:07.072Z,18527
2022-07-31T15:24:07.099Z,18877
2022-07-31T15:27:08.270Z,17767
2022-07-31T15:30:14.448Z,18093
2022-07-31T15:33:07.122Z,19447
2022-07-31T15:36:11.196Z,21303
2022-07-31T15:39:07.087Z,22597
2022-07-31T15:42:07.054Z,21223
2022-07-31T15:45:07.093Z,19723
2022-07-31T15:48:12.213Z,18180
2022-07-31T15:51:07.053Z,15987
2022-07-31T15:54:07.046Z,13287
2022-07-31T15:57:07.955Z,11783
2022-07-31T16:00:07.124Z,11580
2022-07-31T16:03:17.830Z,11020
2022-07-31T16:06:16.262Z,9500
2022-07-31T16:09:07.030Z,7817
2022-07-31T16:12:12.307Z,6980
2022-07-31T16:15:12.370Z,6173
2022-07-31T16:18:07.100Z,4590
2022-07-31T16:21:07.060Z,4157
2022-07-31T16:24:07.509Z,3737
2022-07-31T16:27:08.105Z,3373
2022-07-31T16:30:09.628Z,2527
2022-07-31T16:33:07.046Z,2360
2022-07-31T16:36:07.106Z,2277
2022-07-31T16:39:27.101Z,2357
2022-07-31T16:42:07.124Z,3127
2022-07-31T16:45:07.064Z,4133
2022-07-31T16:48:07.117Z,5407
2022-07-31T16:51:07.063Z,7167
2022-07-31T16:54:22.827Z,6007
2022-07-31T16:57:08.288Z,4343
2022-07-31T17:00:07.101Z,4070
2022-07-31T17:03:07.033Z,4763
2022-07-31T17:06:07.107Z,6180
2022-07-31T17:09:23.511Z,6763
2022-07-31T17:12:08.354Z,4907
2022-07-31T17:15:07.016Z,3193
2022-07-31T17:18:07.051Z,3093
2022-07-31T17:21:11.096Z,3537
2022-07-31T17:24:15.979Z,4970
2022-07-31T17:27:08.661Z,5887
2022-07-31T17:30:07.195Z,4240
2022-07-31T17:33:07.095Z,2873
2022-07-31T17:36:07.095Z,2867
2022-07-31T17:39:07.077Z,3170
2022-07-31T17:42:09.216Z,3010
2022-07-31T17:45:07.298Z,2077
2022-07-31T17:48:10.473Z,1220
2022-07-31T17:51:07.047Z,1017
2022-07-31T17:54:07.285Z,1477
2022-07-31T17:57:07.115Z,2227
2022-07-31T18:00:07.135Z,3103
2022-07-31T18:03:07.084Z,3517
2022-07-31T18:06:07.126Z,2810
2022-07-31T18:09:07.116Z,3007
2022-07-31T18:12:11.058Z,3310
2022-07-31T18:15:07.069Z,3670
2022-07-31T18:18:07.089Z,2797
2022-07-31T18:21:07.055Z,2083
2022-07-31T18:24:12.002Z,1573
2022-07-31T18:27:07.047Z,1337
2022-07-31T18:30:07.615Z,1247
2022-07-31T18:33:07.026Z,1230
2022-07-31T18:36:07.127Z,940
2022-07-31T18:39:07.074Z,827
2022-07-31T18:42:08.092Z,730
2022-07-31T18:45:07.018Z,657
2022-07-31T18:48:07.119Z,637
2022-07-31T18:51:12.081Z,593
2022-07-31T18:54:07.064Z,543
2022-07-31T18:57:07.079Z,483
2022-07-31T19:00:07.371Z,417
2022-07-31T19:03:07.041Z,317
2022-07-31T19:06:07.110Z,230
2022-07-31T19:09:08.283Z,200
2022-07-31T19:12:16.019Z,170
2022-07-31T19:15:07.010Z,123
2022-07-31T19:18:15.227Z,83
2022-07-31T19:21:48.729Z,57
2022-07-31T19:24:07.019Z,37
2022-07-31T19:27:07.048Z,23
2022-07-31T19:30:07.015Z,17
2022-07-31T19:33:07.002Z,10
2022-07-31T19:36:09.725Z,7
2022-07-31T19:39:07.029Z,3
2022-07-31T19:42:18.821Z,3
2022-07-31T19:45:07.022Z,3
2022-07-31T19:48:07.022Z,0
2022-07-31T19:51:07.066Z,0
2022-07-31T19:54:07.085Z,0
2022-07-31T19:57:07.076Z,0
2022-07-31T20:00:07.078Z,0
2022-07-31T20:03:07.448Z,0
2022-07-31T20:06:07.089Z,0
2022-07-31T20:09:06.986Z,0
2022-07-31T20:12:08.091Z,0
2022-07-31T20:15:07.036Z,0
2022-07-31T20:18:07.046Z,0
2022-07-31T20:21:07.118Z,0
2022-07-31T20:24:07.054Z,0
2022-07-31T20:27:07.075Z,0
2022-07-31T20:30:09.053Z,0
2022-07-31T20:33:13.622Z,0
2022-07-31T20:36:07.009Z,0
2022-07-31T20:39:07.085Z,0
2022-07-31T20:42:08.504Z,0
2022-07-31T20:45:07.377Z,0
2022-07-31T20:48:07.063Z,0
2022-07-31T20:51:07.109Z,0
2022-07-31T20:54:07.060Z,0
2022-07-31T20:57:07.065Z,0
2022-07-31T21:00:07.089Z,0
2022-07-31T21:03:07.026Z,0
2022-07-31T21:06:07.040Z,0
2022-07-31T21:09:10.869Z,0
2022-07-31T21:12:07.939Z,0
2022-07-31T21:15:45.026Z,0
2022-07-31T21:18:10.059Z,0
2022-07-31T21:21:07.032Z,0
2022-07-31T21:24:07.150Z,0
2022-07-31T21:27:07.004Z,0
2022-07-31T21:30:07.135Z,0
2022-07-31T21:33:07.079Z,0
2022-07-31T21:36:07.084Z,0
2022-07-31T21:39:07.151Z,0
2022-07-31T21:42:08.246Z,0
2022-07-31T21:45:12.237Z,0
2022-07-31T21:48:07.032Z,0
2022-07-31T21:51:07.273Z,0
2022-07-31T21:54:07.084Z,0
2022-07-31T21:57:07.092Z,0
2022-07-31T22:00:13.816Z,0
2022-07-31T22:03:07.111Z,0
2022-07-31T22:06:07.101Z,0
2022-07-31T22:09:07.086Z,0
2022-07-31T22:12:13.365Z,0
2022-07-31T22:15:07.114Z,0
2022-07-31T22:18:07.746Z,0
2022-07-31T22:21:07.132Z,0
2022-07-31T22:24:07.065Z,0
2022-07-31T22:27:13.748Z,0
2022-07-31T22:30:07.076Z,0
2022-07-31T22:33:08.096Z,0
2022-07-31T22:36:07.373Z,0
2022-07-31T22:39:07.002Z,0
2022-07-31T22:42:08.279Z,0
2022-07-31T22:45:07.029Z,0
2022-07-31T22:48:07.042Z,0
2022-07-31T22:51:07.048Z,0
2022-07-31T22:54:07.034Z,0
2022-07-31T22:57:07.114Z,0
2022-07-31T23:00:07.133Z,0
2022-07-31T23:03:07.141Z,0
2022-07-31T23:06:38.093Z,0
2022-07-31T23:09:07.127Z,0
2022-07-31T23:12:07.932Z,0
2022-07-31T23:15:07.024Z,0
2022-07-31T23:18:07.048Z,0
2022-07-31T23:21:12.645Z,0
2022-07-31T23:24:07.129Z,0
2022-07-31T23:27:07.161Z,0
2022-07-31T23:30:07.095Z,0
2022-07-31T23:33:07.105Z,0
2022-07-31T23:36:07.120Z,0
2022-07-31T23:39:08.272Z,0
2022-07-31T23:42:07.972Z,0
2022-07-31T23:45:08.670Z,0
2022-07-31T23:48:07.698Z,0
2022-07-31T23:51:07.062Z,0
2022-07-31T23:54:07.105Z,0
2022-07-31T23:57:07.090Z,0
